sensor_id;sensor_type;location;lat;lon;timestamp;P1;durP1;ratioP1;P2;durP2;ratioP2
23718;SDS011;43322;52.230;5.702;2023-02-19T00:00:06;41.25;;;14.02;;
23718;SDS011;43322;52.230;5.702;2023-02-19T00:02:34;40.58;;;14.10;;
23718;SDS011;43322;52.230;5.702;2023-02-19T00:05:02;37.38;;;12.48;;
23718;SDS011;43322;52.230;5.702;2023-02-19T00:07:29;40.03;;;13.65;;
23718;SDS011;43322;52.230;5.702;2023-02-19T00:09:56;34.85;;;12.85;;
23718;SDS011;43322;52.230;5.702;2023-02-19T00:12:22;34.72;;;12.90;;
23718;SDS011;43322;52.230;5.702;2023-02-19T00:14:49;39.33;;;12.82;;
23718;SDS011;43322;52.230;5.702;2023-02-19T00:17:16;37.45;;;11.80;;
23718;SDS011;43322;52.230;5.702;2023-02-19T00:19:43;33.88;;;12.02;;
23718;SDS011;43322;52.230;5.702;2023-02-19T00:22:11;23.13;;;11.60;;
23718;SDS011;43322;52.230;5.702;2023-02-19T00:24:37;29.00;;;12.02;;
23718;SDS011;43322;52.230;5.702;2023-02-19T00:27:04;23.27;;;10.90;;
23718;SDS011;43322;52.230;5.702;2023-02-19T00:29:31;26.95;;;9.55;;
23718;SDS011;43322;52.230;5.702;2023-02-19T00:31:57;24.08;;;9.65;;
23718;SDS011;43322;52.230;5.702;2023-02-19T00:34:24;26.77;;;10.10;;
23718;SDS011;43322;52.230;5.702;2023-02-19T00:36:51;23.85;;;10.40;;
23718;SDS011;43322;52.230;5.702;2023-02-19T00:39:19;33.13;;;10.35;;
23718;SDS011;43322;52.230;5.702;2023-02-19T00:41:46;21.80;;;9.90;;
23718;SDS011;43322;52.230;5.702;2023-02-19T00:44:13;16.77;;;8.77;;
23718;SDS011;43322;52.230;5.702;2023-02-19T00:46:40;23.13;;;10.55;;
23718;SDS011;43322;52.230;5.702;2023-02-19T00:49:10;21.00;;;9.27;;
23718;SDS011;43322;52.230;5.702;2023-02-19T00:51:41;22.95;;;10.30;;
23718;SDS011;43322;52.230;5.702;2023-02-19T00:54:08;21.98;;;9.30;;
23718;SDS011;43322;52.230;5.702;2023-02-19T00:56:37;19.30;;;8.55;;
23718;SDS011;43322;52.230;5.702;2023-02-19T00:59:04;18.88;;;8.60;;
23718;SDS011;43322;52.230;5.702;2023-02-19T01:01:30;14.40;;;8.93;;
23718;SDS011;43322;52.230;5.702;2023-02-19T01:03:57;18.85;;;8.70;;
23718;SDS011;43322;52.230;5.702;2023-02-19T01:06:24;13.27;;;8.43;;
23718;SDS011;43322;52.230;5.702;2023-02-19T01:08:53;19.80;;;9.35;;
23718;SDS011;43322;52.230;5.702;2023-02-19T01:11:20;17.77;;;9.23;;
23718;SDS011;43322;52.230;5.702;2023-02-19T01:13:48;22.13;;;9.90;;
23718;SDS011;43322;52.230;5.702;2023-02-19T01:16:16;21.73;;;10.07;;
23718;SDS011;43322;52.230;5.702;2023-02-19T01:18:45;24.27;;;10.07;;
23718;SDS011;43322;52.230;5.702;2023-02-19T01:21:13;26.38;;;10.00;;
23718;SDS011;43322;52.230;5.702;2023-02-19T01:23:42;27.90;;;12.00;;
23718;SDS011;43322;52.230;5.702;2023-02-19T01:26:11;25.95;;;10.63;;
23718;SDS011;43322;52.230;5.702;2023-02-19T01:28:40;22.23;;;10.57;;
23718;SDS011;43322;52.230;5.702;2023-02-19T01:31:09;21.63;;;10.52;;
23718;SDS011;43322;52.230;5.702;2023-02-19T01:33:38;25.88;;;11.35;;
23718;SDS011;43322;52.230;5.702;2023-02-19T01:36:05;26.27;;;10.70;;
23718;SDS011;43322;52.230;5.702;2023-02-19T01:38:32;23.17;;;10.88;;
23718;SDS011;43322;52.230;5.702;2023-02-19T01:41:00;22.55;;;10.90;;
23718;SDS011;43322;52.230;5.702;2023-02-19T01:43:28;25.27;;;11.07;;
23718;SDS011;43322;52.230;5.702;2023-02-19T01:45:56;23.17;;;11.05;;
23718;SDS011;43322;52.230;5.702;2023-02-19T01:48:25;27.77;;;12.02;;
23718;SDS011;43322;52.230;5.702;2023-02-19T01:50:56;20.65;;;10.60;;
23718;SDS011;43322;52.230;5.702;2023-02-19T01:53:28;19.38;;;10.82;;
23718;SDS011;43322;52.230;5.702;2023-02-19T01:55:58;23.92;;;11.52;;
23718;SDS011;43322;52.230;5.702;2023-02-19T01:58:27;27.33;;;11.75;;
23718;SDS011;43322;52.230;5.702;2023-02-19T02:00:58;23.40;;;11.13;;
23718;SDS011;43322;52.230;5.702;2023-02-19T02:03:28;23.05;;;12.32;;
23718;SDS011;43322;52.230;5.702;2023-02-19T02:05:56;23.50;;;11.15;;
23718;SDS011;43322;52.230;5.702;2023-02-19T02:08:26;25.60;;;11.32;;
23718;SDS011;43322;52.230;5.702;2023-02-19T02:11:12;23.52;;;10.35;;
23718;SDS011;43322;52.230;5.702;2023-02-19T02:13:39;18.45;;;9.48;;
23718;SDS011;43322;52.230;5.702;2023-02-19T02:16:11;19.40;;;10.68;;
23718;SDS011;43322;52.230;5.702;2023-02-19T02:18:50;18.70;;;10.60;;
23718;SDS011;43322;52.230;5.702;2023-02-19T02:21:29;15.27;;;9.75;;
23718;SDS011;43322;52.230;5.702;2023-02-19T02:24:20;21.80;;;10.68;;
23718;SDS011;43322;52.230;5.702;2023-02-19T02:27:05;21.42;;;10.25;;
23718;SDS011;43322;52.230;5.702;2023-02-19T02:32:53;22.80;;;12.07;;
23718;SDS011;43322;52.230;5.702;2023-02-19T02:35:24;21.80;;;10.57;;
23718;SDS011;43322;52.230;5.702;2023-02-19T02:37:55;17.30;;;10.40;;
23718;SDS011;43322;52.230;5.702;2023-02-19T02:40:26;20.48;;;10.10;;
23718;SDS011;43322;52.230;5.702;2023-02-19T02:42:55;21.52;;;9.95;;
23718;SDS011;43322;52.230;5.702;2023-02-19T02:45:28;26.27;;;10.30;;
23718;SDS011;43322;52.230;5.702;2023-02-19T02:50:49;19.13;;;10.48;;
23718;SDS011;43322;52.230;5.702;2023-02-19T02:53:20;18.85;;;10.65;;
23718;SDS011;43322;52.230;5.702;2023-02-19T02:56:09;14.80;;;9.90;;
23718;SDS011;43322;52.230;5.702;2023-02-19T02:58:38;19.42;;;10.48;;
23718;SDS011;43322;52.230;5.702;2023-02-19T03:01:07;19.27;;;10.25;;
23718;SDS011;43322;52.230;5.702;2023-02-19T03:04:06;15.50;;;9.95;;
23718;SDS011;43322;52.230;5.702;2023-02-19T03:06:40;24.75;;;11.77;;
23718;SDS011;43322;52.230;5.702;2023-02-19T03:09:10;21.45;;;11.55;;
23718;SDS011;43322;52.230;5.702;2023-02-19T03:11:41;18.98;;;10.70;;
23718;SDS011;43322;52.230;5.702;2023-02-19T03:14:30;16.08;;;10.52;;
23718;SDS011;43322;52.230;5.702;2023-02-19T03:17:23;18.83;;;10.95;;
23718;SDS011;43322;52.230;5.702;2023-02-19T03:20:27;19.63;;;9.55;;
23718;SDS011;43322;52.230;5.702;2023-02-19T03:22:55;15.93;;;10.18;;
23718;SDS011;43322;52.230;5.702;2023-02-19T03:25:24;19.00;;;9.95;;
23718;SDS011;43322;52.230;5.702;2023-02-19T03:28:11;18.48;;;9.77;;
23718;SDS011;43322;52.230;5.702;2023-02-19T03:30:42;15.90;;;9.13;;
23718;SDS011;43322;52.230;5.702;2023-02-19T03:33:14;15.15;;;9.20;;
23718;SDS011;43322;52.230;5.702;2023-02-19T03:35:44;14.77;;;9.60;;
23718;SDS011;43322;52.230;5.702;2023-02-19T03:38:14;16.63;;;9.90;;
23718;SDS011;43322;52.230;5.702;2023-02-19T03:40:49;17.35;;;9.27;;
23718;SDS011;43322;52.230;5.702;2023-02-19T03:43:20;17.02;;;8.88;;
23718;SDS011;43322;52.230;5.702;2023-02-19T03:45:54;17.00;;;9.30;;
23718;SDS011;43322;52.230;5.702;2023-02-19T03:48:30;13.80;;;8.45;;
23718;SDS011;43322;52.230;5.702;2023-02-19T03:51:03;15.60;;;8.48;;
23718;SDS011;43322;52.230;5.702;2023-02-19T03:53:36;20.90;;;8.13;;
23718;SDS011;43322;52.230;5.702;2023-02-19T03:56:15;12.50;;;7.78;;
23718;SDS011;43322;52.230;5.702;2023-02-19T03:58:47;16.13;;;7.78;;
23718;SDS011;43322;52.230;5.702;2023-02-19T04:01:18;16.17;;;7.82;;
23718;SDS011;43322;52.230;5.702;2023-02-19T04:03:51;13.75;;;7.93;;
23718;SDS011;43322;52.230;5.702;2023-02-19T04:06:24;14.10;;;8.70;;
23718;SDS011;43322;52.230;5.702;2023-02-19T04:08:52;15.77;;;8.85;;
23718;SDS011;43322;52.230;5.702;2023-02-19T04:11:21;18.75;;;9.00;;
23718;SDS011;43322;52.230;5.702;2023-02-19T04:13:50;19.92;;;9.80;;
23718;SDS011;43322;52.230;5.702;2023-02-19T04:16:25;21.77;;;10.27;;
23718;SDS011;43322;52.230;5.702;2023-02-19T04:18:56;22.73;;;11.63;;
23718;SDS011;43322;52.230;5.702;2023-02-19T04:21:27;18.73;;;11.18;;
23718;SDS011;43322;52.230;5.702;2023-02-19T04:23:56;19.80;;;11.70;;
23718;SDS011;43322;52.230;5.702;2023-02-19T04:26:26;21.52;;;11.55;;
23718;SDS011;43322;52.230;5.702;2023-02-19T04:28:53;22.65;;;12.75;;
23718;SDS011;43322;52.230;5.702;2023-02-19T04:31:20;23.25;;;13.27;;
23718;SDS011;43322;52.230;5.702;2023-02-19T04:33:48;23.05;;;12.93;;
23718;SDS011;43322;52.230;5.702;2023-02-19T04:36:16;24.10;;;14.20;;
23718;SDS011;43322;52.230;5.702;2023-02-19T04:38:43;22.00;;;14.50;;
23718;SDS011;43322;52.230;5.702;2023-02-19T04:41:10;25.00;;;14.20;;
23718;SDS011;43322;52.230;5.702;2023-02-19T04:43:36;19.23;;;14.73;;
23718;SDS011;43322;52.230;5.702;2023-02-19T04:46:03;21.98;;;16.10;;
23718;SDS011;43322;52.230;5.702;2023-02-19T04:48:30;26.45;;;15.40;;
23718;SDS011;43322;52.230;5.702;2023-02-19T04:50:57;22.88;;;14.18;;
23718;SDS011;43322;52.230;5.702;2023-02-19T04:53:25;16.20;;;13.07;;
23718;SDS011;43322;52.230;5.702;2023-02-19T04:55:51;22.42;;;13.68;;
23718;SDS011;43322;52.230;5.702;2023-02-19T04:58:19;21.85;;;14.10;;
23718;SDS011;43322;52.230;5.702;2023-02-19T05:00:49;18.67;;;13.50;;
23718;SDS011;43322;52.230;5.702;2023-02-19T05:03:17;21.38;;;13.73;;
23718;SDS011;43322;52.230;5.702;2023-02-19T05:05:44;18.20;;;13.43;;
23718;SDS011;43322;52.230;5.702;2023-02-19T05:08:10;18.23;;;13.00;;
23718;SDS011;43322;52.230;5.702;2023-02-19T05:10:39;20.92;;;12.52;;
23718;SDS011;43322;52.230;5.702;2023-02-19T05:13:05;16.60;;;11.60;;
23718;SDS011;43322;52.230;5.702;2023-02-19T05:15:32;18.48;;;11.10;;
23718;SDS011;43322;52.230;5.702;2023-02-19T05:17:59;15.73;;;11.10;;
23718;SDS011;43322;52.230;5.702;2023-02-19T05:20:25;14.55;;;10.95;;
23718;SDS011;43322;52.230;5.702;2023-02-19T05:22:52;21.95;;;12.15;;
23718;SDS011;43322;52.230;5.702;2023-02-19T05:25:19;17.63;;;10.65;;
23718;SDS011;43322;52.230;5.702;2023-02-19T05:27:47;24.27;;;11.65;;
23718;SDS011;43322;52.230;5.702;2023-02-19T05:30:14;17.67;;;11.52;;
23718;SDS011;43322;52.230;5.702;2023-02-19T05:32:41;19.27;;;11.75;;
23718;SDS011;43322;52.230;5.702;2023-02-19T05:35:07;21.23;;;11.98;;
23718;SDS011;43322;52.230;5.702;2023-02-19T05:37:34;17.58;;;12.38;;
23718;SDS011;43322;52.230;5.702;2023-02-19T05:40:01;25.63;;;12.90;;
23718;SDS011;43322;52.230;5.702;2023-02-19T05:42:27;18.60;;;11.15;;
23718;SDS011;43322;52.230;5.702;2023-02-19T05:44:55;19.55;;;11.60;;
23718;SDS011;43322;52.230;5.702;2023-02-19T05:47:22;20.83;;;11.10;;
23718;SDS011;43322;52.230;5.702;2023-02-19T05:49:49;20.35;;;11.82;;
23718;SDS011;43322;52.230;5.702;2023-02-19T05:52:16;19.52;;;11.85;;
23718;SDS011;43322;52.230;5.702;2023-02-19T05:54:42;17.95;;;11.05;;
23718;SDS011;43322;52.230;5.702;2023-02-19T05:57:09;19.38;;;12.27;;
23718;SDS011;43322;52.230;5.702;2023-02-19T05:59:36;19.92;;;12.25;;
23718;SDS011;43322;52.230;5.702;2023-02-19T06:02:04;24.75;;;13.50;;
23718;SDS011;43322;52.230;5.702;2023-02-19T06:04:30;18.83;;;12.77;;
23718;SDS011;43322;52.230;5.702;2023-02-19T06:06:57;18.15;;;11.88;;
23718;SDS011;43322;52.230;5.702;2023-02-19T06:09:24;16.80;;;12.65;;
23718;SDS011;43322;52.230;5.702;2023-02-19T06:11:51;15.52;;;11.60;;
23718;SDS011;43322;52.230;5.702;2023-02-19T06:14:18;17.17;;;12.75;;
23718;SDS011;43322;52.230;5.702;2023-02-19T06:16:45;15.70;;;11.50;;
23718;SDS011;43322;52.230;5.702;2023-02-19T06:19:13;19.08;;;11.90;;
23718;SDS011;43322;52.230;5.702;2023-02-19T06:21:39;12.98;;;10.32;;
23718;SDS011;43322;52.230;5.702;2023-02-19T06:24:06;11.43;;;9.35;;
23718;SDS011;43322;52.230;5.702;2023-02-19T06:26:34;12.60;;;9.32;;
23718;SDS011;43322;52.230;5.702;2023-02-19T06:29:01;11.63;;;9.65;;
23718;SDS011;43322;52.230;5.702;2023-02-19T06:31:29;12.10;;;9.95;;
23718;SDS011;43322;52.230;5.702;2023-02-19T06:33:55;17.98;;;9.65;;
23718;SDS011;43322;52.230;5.702;2023-02-19T06:36:23;13.35;;;8.25;;
23718;SDS011;43322;52.230;5.702;2023-02-19T06:38:50;11.02;;;8.20;;
23718;SDS011;43322;52.230;5.702;2023-02-19T06:41:17;11.82;;;7.88;;
23718;SDS011;43322;52.230;5.702;2023-02-19T06:43:44;14.27;;;8.23;;
23718;SDS011;43322;52.230;5.702;2023-02-19T06:46:11;12.05;;;8.27;;
23718;SDS011;43322;52.230;5.702;2023-02-19T06:48:39;12.50;;;8.07;;
23718;SDS011;43322;52.230;5.702;2023-02-19T06:51:08;8.82;;;7.20;;
23718;SDS011;43322;52.230;5.702;2023-02-19T06:53:38;15.18;;;7.57;;
23718;SDS011;43322;52.230;5.702;2023-02-19T06:56:05;9.95;;;6.88;;
23718;SDS011;43322;52.230;5.702;2023-02-19T06:58:33;14.88;;;7.70;;
23718;SDS011;43322;52.230;5.702;2023-02-19T07:01:00;13.32;;;7.82;;
23718;SDS011;43322;52.230;5.702;2023-02-19T07:03:27;12.18;;;7.43;;
23718;SDS011;43322;52.230;5.702;2023-02-19T07:05:54;12.38;;;7.10;;
23718;SDS011;43322;52.230;5.702;2023-02-19T07:08:24;15.23;;;8.05;;
23718;SDS011;43322;52.230;5.702;2023-02-19T07:10:55;19.25;;;7.70;;
23718;SDS011;43322;52.230;5.702;2023-02-19T07:13:23;14.30;;;8.07;;
23718;SDS011;43322;52.230;5.702;2023-02-19T07:15:51;11.48;;;8.13;;
23718;SDS011;43322;52.230;5.702;2023-02-19T07:18:24;18.75;;;8.40;;
23718;SDS011;43322;52.230;5.702;2023-02-19T07:20:50;25.88;;;8.60;;
23718;SDS011;43322;52.230;5.702;2023-02-19T07:23:17;19.55;;;8.13;;
23718;SDS011;43322;52.230;5.702;2023-02-19T07:25:44;25.55;;;8.27;;
23718;SDS011;43322;52.230;5.702;2023-02-19T07:28:12;20.95;;;8.70;;
23718;SDS011;43322;52.230;5.702;2023-02-19T07:30:40;16.75;;;8.20;;
23718;SDS011;43322;52.230;5.702;2023-02-19T07:33:07;21.33;;;8.40;;
23718;SDS011;43322;52.230;5.702;2023-02-19T07:35:35;20.98;;;8.55;;
23718;SDS011;43322;52.230;5.702;2023-02-19T07:38:02;17.88;;;7.63;;
23718;SDS011;43322;52.230;5.702;2023-02-19T07:40:28;23.45;;;7.72;;
23718;SDS011;43322;52.230;5.702;2023-02-19T07:42:55;21.60;;;8.70;;
23718;SDS011;43322;52.230;5.702;2023-02-19T07:45:25;15.27;;;7.13;;
23718;SDS011;43322;52.230;5.702;2023-02-19T07:47:52;19.70;;;7.50;;
23718;SDS011;43322;52.230;5.702;2023-02-19T07:50:19;19.00;;;7.75;;
23718;SDS011;43322;52.230;5.702;2023-02-19T07:52:45;20.52;;;7.88;;
23718;SDS011;43322;52.230;5.702;2023-02-19T07:55:12;15.73;;;7.85;;
23718;SDS011;43322;52.230;5.702;2023-02-19T07:57:39;18.52;;;7.22;;
23718;SDS011;43322;52.230;5.702;2023-02-19T08:00:06;12.27;;;7.10;;
23718;SDS011;43322;52.230;5.702;2023-02-19T08:02:35;19.77;;;7.22;;
23718;SDS011;43322;52.230;5.702;2023-02-19T08:05:19;19.73;;;6.75;;
23718;SDS011;43322;52.230;5.702;2023-02-19T08:07:46;13.15;;;6.57;;
23718;SDS011;43322;52.230;5.702;2023-02-19T08:10:12;11.68;;;6.00;;
23718;SDS011;43322;52.230;5.702;2023-02-19T08:12:57;19.63;;;6.88;;
23718;SDS011;43322;52.230;5.702;2023-02-19T08:15:43;17.42;;;7.28;;
23718;SDS011;43322;52.230;5.702;2023-02-19T08:18:11;13.60;;;6.93;;
23718;SDS011;43322;52.230;5.702;2023-02-19T08:20:40;14.30;;;6.28;;
23718;SDS011;43322;52.230;5.702;2023-02-19T08:23:07;16.75;;;6.10;;
23718;SDS011;43322;52.230;5.702;2023-02-19T08:25:35;17.80;;;6.10;;
23718;SDS011;43322;52.230;5.702;2023-02-19T08:28:02;11.10;;;6.20;;
23718;SDS011;43322;52.230;5.702;2023-02-19T08:30:29;9.45;;;5.47;;
23718;SDS011;43322;52.230;5.702;2023-02-19T08:32:57;12.52;;;5.35;;
23718;SDS011;43322;52.230;5.702;2023-02-19T08:35:26;8.18;;;5.32;;
23718;SDS011;43322;52.230;5.702;2023-02-19T08:37:53;11.77;;;5.88;;
23718;SDS011;43322;52.230;5.702;2023-02-19T08:40:21;10.98;;;5.78;;
23718;SDS011;43322;52.230;5.702;2023-02-19T08:42:47;8.98;;;5.80;;
23718;SDS011;43322;52.230;5.702;2023-02-19T08:45:14;7.97;;;5.97;;
23718;SDS011;43322;52.230;5.702;2023-02-19T08:47:41;11.10;;;5.68;;
23718;SDS011;43322;52.230;5.702;2023-02-19T08:50:08;10.98;;;5.45;;
23718;SDS011;43322;52.230;5.702;2023-02-19T08:52:37;9.98;;;5.53;;
23718;SDS011;43322;52.230;5.702;2023-02-19T08:55:04;6.95;;;5.38;;
23718;SDS011;43322;52.230;5.702;2023-02-19T08:57:33;8.80;;;5.05;;
23718;SDS011;43322;52.230;5.702;2023-02-19T09:00:01;6.38;;;4.60;;
23718;SDS011;43322;52.230;5.702;2023-02-19T09:02:29;11.65;;;5.47;;
23718;SDS011;43322;52.230;5.702;2023-02-19T09:04:56;4.60;;;4.10;;
23718;SDS011;43322;52.230;5.702;2023-02-19T09:07:23;7.50;;;3.95;;
23718;SDS011;43322;52.230;5.702;2023-02-19T09:09:51;4.93;;;3.20;;
23718;SDS011;43322;52.230;5.702;2023-02-19T09:12:18;3.88;;;3.38;;
23718;SDS011;43322;52.230;5.702;2023-02-19T09:14:45;3.05;;;2.65;;
23718;SDS011;43322;52.230;5.702;2023-02-19T09:17:12;3.10;;;2.90;;
23718;SDS011;43322;52.230;5.702;2023-02-19T09:19:39;2.80;;;2.70;;
23718;SDS011;43322;52.230;5.702;2023-02-19T09:22:06;2.92;;;2.70;;
23718;SDS011;43322;52.230;5.702;2023-02-19T09:24:33;3.38;;;2.80;;
23718;SDS011;43322;52.230;5.702;2023-02-19T09:27:01;4.40;;;3.03;;
23718;SDS011;43322;52.230;5.702;2023-02-19T09:29:28;2.70;;;2.50;;
23718;SDS011;43322;52.230;5.702;2023-02-19T09:31:55;3.22;;;2.85;;
23718;SDS011;43322;52.230;5.702;2023-02-19T09:34:23;3.30;;;2.78;;
23718;SDS011;43322;52.230;5.702;2023-02-19T09:36:50;3.13;;;2.88;;
23718;SDS011;43322;52.230;5.702;2023-02-19T09:39:17;3.10;;;2.85;;
23718;SDS011;43322;52.230;5.702;2023-02-19T09:41:45;4.43;;;3.30;;
23718;SDS011;43322;52.230;5.702;2023-02-19T09:44:17;3.97;;;3.38;;
23718;SDS011;43322;52.230;5.702;2023-02-19T09:46:48;4.30;;;3.90;;
23718;SDS011;43322;52.230;5.702;2023-02-19T09:49:18;3.90;;;3.63;;
23718;SDS011;43322;52.230;5.702;2023-02-19T09:51:48;3.45;;;3.20;;
23718;SDS011;43322;52.230;5.702;2023-02-19T09:54:19;4.15;;;3.80;;
23718;SDS011;43322;52.230;5.702;2023-02-19T09:56:48;4.57;;;4.20;;
23718;SDS011;43322;52.230;5.702;2023-02-19T09:59:17;3.90;;;3.60;;
23718;SDS011;43322;52.230;5.702;2023-02-19T10:01:47;3.38;;;2.58;;
23718;SDS011;43322;52.230;5.702;2023-02-19T10:04:19;2.63;;;2.42;;
23718;SDS011;43322;52.230;5.702;2023-02-19T10:06:46;3.88;;;2.42;;
23718;SDS011;43322;52.230;5.702;2023-02-19T10:09:16;4.05;;;2.25;;
23718;SDS011;43322;52.230;5.702;2023-02-19T10:11:47;2.33;;;2.13;;
23718;SDS011;43322;52.230;5.702;2023-02-19T10:14:18;2.35;;;2.15;;
23718;SDS011;43322;52.230;5.702;2023-02-19T10:16:49;2.35;;;2.25;;
23718;SDS011;43322;52.230;5.702;2023-02-19T10:19:17;2.22;;;2.03;;
23718;SDS011;43322;52.230;5.702;2023-02-19T10:21:44;3.13;;;2.40;;
23718;SDS011;43322;52.230;5.702;2023-02-19T10:24:13;2.40;;;2.30;;
23718;SDS011;43322;52.230;5.702;2023-02-19T10:26:46;3.30;;;2.30;;
23718;SDS011;43322;52.230;5.702;2023-02-19T10:29:14;3.85;;;2.83;;
23718;SDS011;43322;52.230;5.702;2023-02-19T10:31:42;2.50;;;2.30;;
23718;SDS011;43322;52.230;5.702;2023-02-19T10:34:15;2.92;;;2.72;;
23718;SDS011;43322;52.230;5.702;2023-02-19T10:36:44;2.75;;;2.55;;
23718;SDS011;43322;52.230;5.702;2023-02-19T10:39:24;2.60;;;2.40;;
23718;SDS011;43322;52.230;5.702;2023-02-19T10:42:03;2.65;;;2.10;;
23718;SDS011;43322;52.230;5.702;2023-02-19T10:44:30;2.53;;;2.40;;
23718;SDS011;43322;52.230;5.702;2023-02-19T10:47:05;2.33;;;1.95;;
23718;SDS011;43322;52.230;5.702;2023-02-19T10:49:32;1.80;;;1.70;;
23718;SDS011;43322;52.230;5.702;2023-02-19T10:52:09;1.63;;;1.52;;
23718;SDS011;43322;52.230;5.702;2023-02-19T10:54:42;1.23;;;1.23;;
23718;SDS011;43322;52.230;5.702;2023-02-19T10:57:23;1.55;;;1.45;;
23718;SDS011;43322;52.230;5.702;2023-02-19T10:59:57;2.50;;;2.08;;
23718;SDS011;43322;52.230;5.702;2023-02-19T11:02:27;1.98;;;1.88;;
23718;SDS011;43322;52.230;5.702;2023-02-19T11:05:02;2.67;;;1.50;;
23718;SDS011;43322;52.230;5.702;2023-02-19T11:07:31;1.63;;;1.52;;
23718;SDS011;43322;52.230;5.702;2023-02-19T11:09:58;3.10;;;2.20;;
23718;SDS011;43322;52.230;5.702;2023-02-19T11:12:26;2.15;;;2.05;;
23718;SDS011;43322;52.230;5.702;2023-02-19T11:14:54;2.47;;;2.30;;
23718;SDS011;43322;52.230;5.702;2023-02-19T11:17:22;2.20;;;2.10;;
23718;SDS011;43322;52.230;5.702;2023-02-19T11:19:51;2.40;;;2.30;;
23718;SDS011;43322;52.230;5.702;2023-02-19T11:22:26;2.95;;;2.75;;
23718;SDS011;43322;52.230;5.702;2023-02-19T11:24:55;2.97;;;2.78;;
23718;SDS011;43322;52.230;5.702;2023-02-19T11:27:28;3.10;;;2.90;;
23718;SDS011;43322;52.230;5.702;2023-02-19T11:29:54;2.97;;;2.78;;
23718;SDS011;43322;52.230;5.702;2023-02-19T11:32:22;3.67;;;3.38;;
23718;SDS011;43322;52.230;5.702;2023-02-19T11:35:03;3.00;;;2.80;;
23718;SDS011;43322;52.230;5.702;2023-02-19T11:37:51;3.47;;;3.17;;
23718;SDS011;43322;52.230;5.702;2023-02-19T11:40:20;2.85;;;2.67;;
23718;SDS011;43322;52.230;5.702;2023-02-19T11:42:53;3.00;;;2.83;;
23718;SDS011;43322;52.230;5.702;2023-02-19T11:45:33;2.58;;;2.47;;
23718;SDS011;43322;52.230;5.702;2023-02-19T11:48:09;2.58;;;2.42;;
23718;SDS011;43322;52.230;5.702;2023-02-19T11:50:59;2.20;;;2.10;;
23718;SDS011;43322;52.230;5.702;2023-02-19T11:53:35;2.00;;;1.90;;
23718;SDS011;43322;52.230;5.702;2023-02-19T11:56:13;2.60;;;2.40;;
23718;SDS011;43322;52.230;5.702;2023-02-19T11:58:49;2.00;;;1.90;;
23718;SDS011;43322;52.230;5.702;2023-02-19T12:01:22;2.05;;;1.95;;
23718;SDS011;43322;52.230;5.702;2023-02-19T12:04:03;2.13;;;1.98;;
23718;SDS011;43322;52.230;5.702;2023-02-19T12:06:59;2.10;;;2.00;;
23718;SDS011;43322;52.230;5.702;2023-02-19T12:09:44;2.10;;;2.00;;
23718;SDS011;43322;52.230;5.702;2023-02-19T12:12:25;2.33;;;2.22;;
23718;SDS011;43322;52.230;5.702;2023-02-19T12:15:16;2.17;;;2.08;;
23718;SDS011;43322;52.230;5.702;2023-02-19T12:18:02;1.95;;;1.85;;
23718;SDS011;43322;52.230;5.702;2023-02-19T12:20:44;2.13;;;2.03;;
23718;SDS011;43322;52.230;5.702;2023-02-19T12:26:17;2.10;;;2.00;;
23718;SDS011;43322;52.230;5.702;2023-02-19T12:31:58;1.67;;;1.58;;
23718;SDS011;43322;52.230;5.702;2023-02-19T12:34:42;1.70;;;1.60;;
23718;SDS011;43322;52.230;5.702;2023-02-19T12:37:30;1.95;;;1.67;;
23718;SDS011;43322;52.230;5.702;2023-02-19T12:40:12;1.35;;;1.35;;
23718;SDS011;43322;52.230;5.702;2023-02-19T12:42:51;2.78;;;1.85;;
23718;SDS011;43322;52.230;5.702;2023-02-19T12:45:30;1.15;;;1.15;;
23718;SDS011;43322;52.230;5.702;2023-02-19T12:48:02;1.42;;;1.30;;
23718;SDS011;43322;52.230;5.702;2023-02-19T12:50:33;1.67;;;1.58;;
23718;SDS011;43322;52.230;5.702;2023-02-19T12:53:04;1.67;;;1.58;;
23718;SDS011;43322;52.230;5.702;2023-02-19T12:55:39;2.97;;;1.52;;
23718;SDS011;43322;52.230;5.702;2023-02-19T12:58:10;1.58;;;1.48;;
23718;SDS011;43322;52.230;5.702;2023-02-19T13:00:42;1.02;;;1.02;;
23718;SDS011;43322;52.230;5.702;2023-02-19T13:03:13;3.53;;;1.30;;
23718;SDS011;43322;52.230;5.702;2023-02-19T13:05:46;1.10;;;1.10;;
23718;SDS011;43322;52.230;5.702;2023-02-19T13:08:18;1.00;;;1.00;;
23718;SDS011;43322;52.230;5.702;2023-02-19T13:10:54;1.35;;;1.15;;
23718;SDS011;43322;52.230;5.702;2023-02-19T13:13:25;1.63;;;1.10;;
23718;SDS011;43322;52.230;5.702;2023-02-19T13:15:56;1.23;;;1.20;;
23718;SDS011;43322;52.230;5.702;2023-02-19T13:18:28;0.98;;;0.98;;
23718;SDS011;43322;52.230;5.702;2023-02-19T13:20:59;1.15;;;1.10;;
23718;SDS011;43322;52.230;5.702;2023-02-19T13:23:27;1.45;;;1.38;;
23718;SDS011;43322;52.230;5.702;2023-02-19T13:29:24;1.70;;;1.60;;
23718;SDS011;43322;52.230;5.702;2023-02-19T13:35:15;1.20;;;1.17;;
23718;SDS011;43322;52.230;5.702;2023-02-19T13:37:49;1.13;;;1.02;;
23718;SDS011;43322;52.230;5.702;2023-02-19T13:40:26;0.95;;;0.90;;
23718;SDS011;43322;52.230;5.702;2023-02-19T13:42:58;1.05;;;1.05;;
23718;SDS011;43322;52.230;5.702;2023-02-19T13:45:28;1.60;;;1.50;;
23718;SDS011;43322;52.230;5.702;2023-02-19T13:47:59;1.35;;;1.20;;
23718;SDS011;43322;52.230;5.702;2023-02-19T13:50:37;1.23;;;1.23;;
23718;SDS011;43322;52.230;5.702;2023-02-19T13:53:06;2.92;;;1.33;;
23718;SDS011;43322;52.230;5.702;2023-02-19T14:02:09;1.55;;;1.50;;
23718;SDS011;43322;52.230;5.702;2023-02-19T14:04:58;1.58;;;1.48;;
23718;SDS011;43322;52.230;5.702;2023-02-19T14:07:34;1.15;;;1.15;;
23718;SDS011;43322;52.230;5.702;2023-02-19T14:28:15;1.40;;;1.00;;
23718;SDS011;43322;52.230;5.702;2023-02-19T14:30:48;0.85;;;0.85;;
23718;SDS011;43322;52.230;5.702;2023-02-19T14:33:19;1.13;;;1.13;;
23718;SDS011;43322;52.230;5.702;2023-02-19T14:35:50;1.15;;;1.05;;
23718;SDS011;43322;52.230;5.702;2023-02-19T14:38:20;3.78;;;1.20;;
23718;SDS011;43322;52.230;5.702;2023-02-19T14:40:49;1.10;;;1.10;;
23718;SDS011;43322;52.230;5.702;2023-02-19T14:43:18;0.98;;;0.95;;
23718;SDS011;43322;52.230;5.702;2023-02-19T14:45:49;1.00;;;1.00;;
23718;SDS011;43322;52.230;5.702;2023-02-19T14:48:21;1.00;;;1.00;;
23718;SDS011;43322;52.230;5.702;2023-02-19T14:50:52;0.80;;;0.80;;
23718;SDS011;43322;52.230;5.702;2023-02-19T14:53:23;2.38;;;1.23;;
23718;SDS011;43322;52.230;5.702;2023-02-19T14:55:51;1.45;;;1.05;;
23718;SDS011;43322;52.230;5.702;2023-02-19T14:58:20;1.83;;;0.98;;
23718;SDS011;43322;52.230;5.702;2023-02-19T15:00:49;0.95;;;0.95;;
23718;SDS011;43322;52.230;5.702;2023-02-19T15:03:25;0.90;;;0.90;;
23718;SDS011;43322;52.230;5.702;2023-02-19T15:05:54;1.05;;;0.70;;
23718;SDS011;43322;52.230;5.702;2023-02-19T15:08:26;0.88;;;0.88;;
23718;SDS011;43322;52.230;5.702;2023-02-19T15:10:56;1.17;;;0.98;;
23718;SDS011;43322;52.230;5.702;2023-02-19T15:13:24;1.15;;;0.98;;
23718;SDS011;43322;52.230;5.702;2023-02-19T15:15:53;0.70;;;0.70;;
23718;SDS011;43322;52.230;5.702;2023-02-19T15:18:21;0.80;;;0.70;;
23718;SDS011;43322;52.230;5.702;2023-02-19T15:20:51;0.80;;;0.80;;
23718;SDS011;43322;52.230;5.702;2023-02-19T15:23:25;0.80;;;0.80;;
23718;SDS011;43322;52.230;5.702;2023-02-19T15:25:54;2.08;;;0.93;;
23718;SDS011;43322;52.230;5.702;2023-02-19T15:28:26;1.60;;;0.95;;
23718;SDS011;43322;52.230;5.702;2023-02-19T15:31:03;0.90;;;0.90;;
23718;SDS011;43322;52.230;5.702;2023-02-19T15:33:31;0.90;;;0.90;;
23718;SDS011;43322;52.230;5.702;2023-02-19T15:36:01;0.85;;;0.85;;
23718;SDS011;43322;52.230;5.702;2023-02-19T15:38:31;1.17;;;1.17;;